Time;durP1;ratioP1;P1;durP2;ratioP2;P2;SDS_P1;SDS_P2;PMS_P1;PMS_P2;Temp;Humidity;BMP_temperature;BMP_pressure;BME280_temperature;BME280_humidity;BME280_pressure;Samples;Min_cycle;Max_cycle;Signal;HPM_P1;HPM_P2
2023/06/18 00:02:05;;;;;;;10.77;6.05;;;17.10;82.30;;;16.83;61.03;97002.16;5044368;28;20075;-37
2023/06/18 00:04:32;;;;;;;8.05;6.05;;;17.00;83.10;;;16.91;62.36;97023.84;5039600;28;20033;-38
2023/06/18 00:06:58;;;;;;;9.65;6.20;;;17.00;84.10;;;16.88;63.60;97016.91;5044124;28;20060;-37
2023/06/18 00:09:24;;;;;;;8.60;6.28;;;17.00;84.70;;;16.85;65.16;97019.78;5044831;28;20032;-37
2023/06/18 00:11:50;;;;;;;7.47;6.35;;;16.90;85.40;;;16.82;66.21;97019.13;5048197;28;20033;-37
2023/06/18 00:14:17;;;;;;;9.25;6.63;;;16.90;86.00;;;16.79;65.63;97014.84;5046417;28;20468;-38
2023/06/18 00:16:43;;;;;;;8.63;6.68;;;16.90;85.80;;;16.78;64.86;97015.81;5042838;28;20605;-37
2023/06/18 00:19:09;;;;;;;9.75;7.15;;;16.90;85.40;;;16.77;64.85;97016.75;5046073;28;20033;-38
2023/06/18 00:21:35;;;;;;;9.85;6.90;;;16.80;85.40;;;16.74;65.64;97008.97;5043803;28;20039;-38
2023/06/18 00:24:01;;;;;;;9.07;6.22;;;16.80;85.90;;;16.69;66.94;97008.41;5043847;28;20546;-37
2023/06/18 00:26:26;;;;;;;8.35;6.40;;;16.80;86.40;;;16.67;67.41;97007.69;5043224;28;21058;-37
2023/06/18 00:28:52;;;;;;;8.43;6.50;;;16.70;86.80;;;16.66;66.81;97016.63;5038609;28;20029;-39
2023/06/18 00:31:19;;;;;;;10.63;7.03;;;16.70;86.60;;;16.61;66.86;97009.78;5044773;28;20072;-38
2023/06/18 00:33:45;;;;;;;9.45;6.38;;;16.70;86.50;;;16.59;67.74;97013.53;5043187;28;20055;-38
2023/06/18 00:36:12;;;;;;;9.20;6.95;;;16.60;87.10;;;16.54;67.97;97016.47;5045191;28;20020;-38
2023/06/18 00:38:45;;;;;;;8.40;6.32;;;16.60;87.30;;;16.50;68.25;97004.34;5045110;28;20037;-37
2023/06/18 00:41:11;;;;;;;8.35;6.57;;;16.60;87.40;;;16.46;68.48;97002.84;5046037;28;20044;-39
2023/06/18 00:43:37;;;;;;;9.45;6.30;;;16.60;87.70;;;16.42;68.71;97006.69;5048237;28;20032;-37
2023/06/18 00:46:05;;;;;;;8.82;5.88;;;16.50;87.80;;;16.38;69.96;97006.03;5044968;28;20060;-38
2023/06/18 00:48:35;;;;;;;8.82;6.43;;;16.40;88.30;;;16.25;70.14;96986.50;5041871;28;20039;-37
2023/06/18 00:51:03;;;;;;;8.32;6.40;;;16.40;88.60;;;16.29;70.50;96995.97;5048651;28;20044;-37
2023/06/18 00:53:30;;;;;;;7.95;6.28;;;16.40;88.80;;;16.25;70.49;97002.47;5043342;28;20210;-38
2023/06/18 00:55:56;;;;;;;9.30;6.40;;;16.40;88.90;;;16.21;71.50;96996.50;5048489;28;20048;-37
2023/06/18 00:58:23;;;;;;;8.52;6.13;;;16.30;89.40;;;16.18;71.39;96994.03;5047136;28;20020;-39
2023/06/18 01:00:50;;;;;;;9.15;6.53;;;16.30;89.40;;;16.12;72.31;96998.94;5042509;28;20078;-38
2023/06/18 01:03:20;;;;;;;8.52;6.20;;;16.20;89.80;;;16.08;73.13;96992.06;5044889;28;20025;-37
2023/06/18 01:05:50;;;;;;;7.47;5.82;;;16.20;90.10;;;16.07;73.80;96990.38;5039014;28;20052;-37
2023/06/18 01:08:17;;;;;;;9.85;6.40;;;16.10;90.30;;;16.03;73.85;96995.91;5044201;28;20056;-38
2023/06/18 01:10:43;;;;;;;8.35;6.35;;;16.20;90.80;;;16.01;73.85;96996.97;5051659;28;20028;-39
2023/06/18 01:13:10;;;;;;;8.70;6.10;;;16.00;90.00;;;15.99;74.38;96993.56;5045167;28;20458;-39
2023/06/18 01:15:37;;;;;;;8.98;6.70;;;16.10;90.50;;;15.95;74.89;96998.22;5040487;28;20043;-37
2023/06/18 01:18:06;;;;;;;8.93;6.30;;;16.00;90.60;;;15.91;74.74;96998.50;5041588;28;20129;-38
2023/06/18 01:20:40;;;;;;;9.70;6.88;;;16.00;90.60;;;15.87;74.88;96995.19;5039555;28;20028;-38
2023/06/18 01:23:25;;;;;;;7.72;6.15;;;15.90;90.60;;;15.84;74.27;96990.06;5029720;28;20064;-38
2023/06/18 01:25:52;;;;;;;10.15;6.40;;;15.90;90.50;;;15.78;73.88;96988.66;5033562;28;20675;-38
2023/06/18 01:28:18;;;;;;;10.32;6.50;;;15.90;90.40;;;15.75;74.58;96993.31;5034335;28;20530;-38
2023/06/18 01:30:44;;;;;;;9.25;6.68;;;15.80;90.60;;;15.73;75.41;96989.88;5044955;28;20029;-37
2023/06/18 01:33:12;;;;;;;13.52;7.10;;;15.80;91.20;;;15.69;75.63;96994.53;5045710;28;20032;-37
2023/06/18 01:35:38;;;;;;;9.23;6.82;;;15.80;90.90;;;15.65;76.85;96990.38;5043893;28;20024;-38
2023/06/18 01:38:42;;;;;;;8.05;6.25;;;15.70;91.20;;;15.61;76.98;96989.72;5042097;28;20044;-38
2023/06/18 01:41:18;;;;;;;7.68;6.22;;;15.70;91.20;;;15.57;77.26;96990.00;5044224;28;20235;-40
2023/06/18 01:43:57;;;;;;;10.65;6.47;;;15.60;91.30;;;15.52;77.50;96984.97;5039075;28;20500;-38
2023/06/18 01:46:26;;;;;;;8.15;6.03;;;15.60;91.40;;;15.50;77.58;96991.34;5042305;28;20035;-38
2023/06/18 01:48:56;;;;;;;10.07;6.30;;;15.60;91.50;;;15.46;78.22;96993.34;5043928;28;20020;-37
2023/06/18 01:51:24;;;;;;;9.60;6.53;;;15.60;91.60;;;15.43;78.65;96996.19;5034100;28;20045;-38
2023/06/18 01:53:53;;;;;;;8.77;6.25;;;15.50;91.70;;;15.40;78.39;96991.09;5037856;28;20564;-39
2023/06/18 01:56:21;;;;;;;8.20;5.80;;;15.50;91.70;;;15.37;78.27;96992.13;5037570;28;20474;-39
2023/06/18 01:58:46;;;;;;;8.35;6.28;;;15.50;91.80;;;15.34;79.10;96986.16;5041007;28;20033;-38
2023/06/18 02:01:12;;;;;;;9.18;6.55;;;15.50;91.90;;;15.32;78.82;96983.56;5044548;28;20025;-37
2023/06/18 02:03:39;;;;;;;9.18;6.53;;;15.40;91.80;;;15.21;78.69;96970.97;5032465;28;20082;-37
2023/06/18 02:06:06;;;;;;;8.48;6.53;;;15.40;91.90;;;15.25;79.38;96985.78;5040343;28;20048;-37
2023/06/18 02:08:32;;;;;;;9.10;6.32;;;15.40;92.00;;;15.20;79.75;96985.22;5036593;28;20401;-38
2023/06/18 02:10:58;;;;;;;11.82;6.85;;;15.30;92.10;;;15.18;80.72;97000.41;5031729;28;20612;-39
2023/06/18 02:13:23;;;;;;;9.68;6.50;;;15.30;92.30;;;15.13;80.72;96996.28;5034043;28;20037;-38
2023/06/18 02:15:49;;;;;;;9.00;6.20;;;15.20;92.40;;;15.10;81.06;96994.69;5050799;28;20032;-38
2023/06/18 02:18:15;;;;;;;8.43;6.85;;;15.20;92.50;;;15.07;81.42;96995.75;5036289;28;20333;-38
2023/06/18 02:20:41;;;;;;;9.07;6.68;;;15.20;92.60;;;15.04;82.32;97001.25;5037215;28;20064;-38
2023/06/18 02:23:08;;;;;;;10.50;7.15;;;15.20;92.80;;;15.01;83.50;96992.59;5023783;28;20054;-38
2023/06/18 02:25:34;;;;;;;7.97;6.57;;;15.10;93.10;;;14.98;83.33;96990.13;5036095;28;20035;-38
2023/06/18 02:28:04;;;;;;;11.48;6.85;;;15.10;93.10;;;14.96;84.24;96994.69;5034659;28;20025;-38
2023/06/18 02:30:31;;;;;;;9.90;6.60;;;15.10;93.30;;;14.87;85.10;96986.31;5037970;28;20033;-37
2023/06/18 02:33:02;;;;;;;9.00;6.60;;;15.10;93.50;;;14.91;85.16;97000.25;5033332;28;20502;-38
2023/06/18 02:35:29;;;;;;;9.20;7.03;;;15.00;93.60;;;14.88;85.35;96992.50;5036712;28;20406;-38
2023/06/18 02:37:55;;;;;;;9.43;6.63;;;15.00;93.60;;;14.86;85.39;96997.06;5040943;28;20545;-38
2023/06/18 02:40:21;;;;;;;8.77;6.43;;;15.00;93.80;;;14.84;85.77;97004.22;5038919;28;20067;-38
2023/06/18 02:42:47;;;;;;;8.18;6.50;;;14.90;93.80;;;14.84;84.50;96993.63;5041980;28;20044;-37
2023/06/18 02:45:28;;;;;;;7.50;6.00;;;15.00;93.60;;;14.76;83.24;96994.09;5034268;28;20478;-38
2023/06/18 02:47:54;;;;;;;9.98;6.53;;;14.90;93.30;;;14.80;82.83;96984.97;5041598;28;20040;-39
2023/06/18 02:50:20;;;;;;;11.10;6.53;;;14.90;93.30;;;14.80;82.48;96981.50;5046074;28;20032;-39
2023/06/18 02:52:46;;;;;;;11.50;6.70;;;14.90;93.20;;;14.79;82.36;96985.94;5047402;28;20777;-38
2023/06/18 02:55:12;;;;;;;8.95;6.35;;;14.90;93.20;;;14.73;82.17;96980.16;5039164;28;20037;-37
2023/06/18 02:57:39;;;;;;;8.75;6.50;;;14.90;93.20;;;14.76;82.53;96979.97;5045557;28;20547;-38
2023/06/18 03:00:09;;;;;;;9.05;5.97;;;14.90;93.30;;;14.79;82.97;96990.41;5040678;28;20295;-38
2023/06/18 03:02:35;;;;;;;8.63;6.45;;;15.00;93.40;;;14.78;83.26;96989.53;5045509;28;20041;-40
2023/06/18 03:05:01;;;;;;;8.00;6.20;;;14.90;93.40;;;14.77;83.29;96994.94;5037905;28;20508;-39
2023/06/18 03:07:27;;;;;;;10.32;6.40;;;14.90;93.50;;;14.67;83.42;96970.75;5046268;28;20033;-38
2023/06/18 03:09:53;;;;;;;10.45;6.88;;;14.90;93.50;;;14.75;84.21;96991.53;5043322;28;20064;-38
2023/06/18 03:12:19;;;;;;;8.95;6.22;;;14.90;93.70;;;14.68;85.49;96985.75;5042147;28;20029;-38
2023/06/18 03:14:45;;;;;;;8.40;6.47;;;14.90;94.00;;;14.70;86.94;97000.63;5039611;28;20062;-38
2023/06/18 03:17:11;;;;;;;7.78;6.07;;;14.90;94.30;;;14.67;87.04;96992.00;5041457;28;20752;-38
2023/06/18 03:19:36;;;;;;;9.32;6.30;;;14.80;94.40;;;14.63;87.15;96993.97;5041800;28;20040;-38
2023/06/18 03:22:05;;;;;;;8.40;6.60;;;14.80;94.40;;;14.61;87.32;96993.22;5039983;28;20047;-38
2023/06/18 03:24:35;;;;;;;8.30;6.30;;;14.70;94.50;;;14.60;87.78;97004.75;5042827;28;20620;-38
2023/06/18 03:27:01;;;;;;;8.52;6.03;;;14.70;94.70;;;14.59;88.81;97005.72;5042784;28;20044;-38
2023/06/18 03:29:30;;;;;;;9.05;6.60;;;14.70;94.90;;;14.57;89.07;97001.41;5044023;28;21949;-37
2023/06/18 03:31:56;;;;;;;9.02;6.63;;;14.70;95.00;;;14.49;89.33;96989.44;5040125;28;20158;-38
2023/06/18 03:34:23;;;;;;;9.30;6.63;;;14.70;95.20;;;14.50;89.70;96995.63;5042296;28;20032;-38
2023/06/18 03:36:49;;;;;;;8.45;5.93;;;14.70;95.30;;;14.56;89.62;97010.34;5043288;28;20040;-38
2023/06/18 03:39:16;;;;;;;8.40;6.05;;;14.70;95.30;;;14.57;89.40;97009.38;5043397;28;20720;-38
2023/06/18 03:41:42;;;;;;;7.93;6.15;;;14.70;95.30;;;14.58;88.98;97003.16;5033850;28;20044;-38
2023/06/18 03:44:09;;;;;;;7.85;6.10;;;14.70;95.20;;;14.56;88.80;96997.91;5025565;28;20170;-38
2023/06/18 03:46:34;;;;;;;8.65;6.35;;;14.70;95.20;;;14.62;89.25;97002.88;5032020;28;20041;-38
2023/06/18 03:49:00;;;;;;;8.05;5.47;;;14.80;95.30;;;14.66;89.04;97008.84;5031835;28;20287;-39
2023/06/18 03:51:26;;;;;;;7.93;6.22;;;14.80;95.30;;;14.68;88.79;97010.47;5033837;28;20088;-37
2023/06/18 03:53:52;;;;;;;9.15;6.18;;;14.80;95.30;;;14.72;88.11;97003.19;5038215;28;20094;-39
2023/06/18 03:56:19;;;;;;;9.50;6.00;;;14.80;95.20;;;14.74;88.03;96998.63;5031749;28;20675;-38
2023/06/18 03:58:46;;;;;;;8.52;6.22;;;14.90;95.20;;;14.81;87.67;97010.59;5032658;28;20042;-37
2023/06/18 04:01:11;;;;;;;8.23;6.10;;;14.90;95.10;;;14.86;88.17;97007.69;5029962;28;20224;-38
2023/06/18 04:03:38;;;;;;;10.25;6.18;;;15.00;95.20;;;14.86;88.07;96991.75;5035936;28;20039;-38
2023/06/18 04:06:04;;;;;;;8.68;6.38;;;15.10;95.30;;;15.02;87.69;97008.44;5026649;28;20028;-37
2023/06/18 04:08:31;;;;;;;8.25;6.05;;;15.10;95.20;;;15.08;87.01;96999.25;5034720;28;20032;-38
2023/06/18 04:10:58;;;;;;;6.53;5.68;;;15.20;95.10;;;15.20;86.86;97017.09;5035156;28;20750;-38
2023/06/18 04:13:24;;;;;;;7.43;5.88;;;15.30;95.20;;;15.30;85.06;97004.06;5036935;28;20035;-39
2023/06/18 04:15:50;;;;;;;7.55;6.25;;;15.40;94.70;;;15.37;82.94;97004.56;5029782;28;20297;-39
2023/06/18 04:18:16;;;;;;;9.20;6.10;;;15.50;94.30;;;15.52;81.09;97011.53;5030893;28;20739;-38
2023/06/18 04:20:42;;;;;;;9.43;6.50;;;15.70;93.90;;;15.67;80.66;97015.06;5031981;28;20032;-38
2023/06/18 04:23:08;;;;;;;7.82;5.47;;;15.80;93.80;;;15.80;78.10;97017.81;5035444;28;20130;-38
2023/06/18 04:25:34;;;;;;;7.45;5.95;;;15.90;93.30;;;15.94;78.11;97006.31;5040373;28;20066;-39
2023/06/18 04:28:00;;;;;;;8.05;5.65;;;16.10;93.30;;;16.10;77.59;97016.78;5036609;28;20039;-38
2023/06/18 04:30:26;;;;;;;7.38;5.55;;;16.20;93.10;;;16.24;76.43;97008.75;5036826;28;20029;-38
2023/06/18 04:32:52;;;;;;;5.80;5.10;;;16.30;92.90;;;16.39;75.22;97010.38;5036414;28;20506;-38
2023/06/18 04:35:19;;;;;;;7.97;5.85;;;16.50;92.70;;;16.54;69.09;97007.66;5040042;28;20048;-37
2023/06/18 04:37:45;;;;;;;7.32;5.90;;;16.60;91.70;;;16.71;67.76;97009.19;5037294;28;20028;-38
2023/06/18 04:40:11;;;;;;;7.00;5.85;;;16.80;91.10;;;16.82;66.25;97000.47;5034526;28;20028;-38
2023/06/18 04:42:37;;;;;;;8.63;6.00;;;17.00;90.60;;;17.02;65.74;97010.63;5037436;28;20021;-40
2023/06/18 04:45:04;;;;;;;9.25;5.90;;;17.10;90.40;;;17.12;64.13;97003.72;5036449;28;20105;-37
2023/06/18 04:47:30;;;;;;;8.20;5.57;;;17.20;90.10;;;17.26;64.07;97004.53;5035991;28;20529;-38
2023/06/18 04:49:55;;;;;;;9.13;5.85;;;17.30;90.10;;;17.27;64.08;96992.94;5047801;28;20037;-38
2023/06/18 04:52:21;;;;;;;6.80;5.60;;;17.40;90.00;;;17.39;63.34;96993.88;5046260;28;20044;-38
2023/06/18 04:54:47;;;;;;;8.25;5.95;;;17.50;89.70;;;17.46;61.45;97009.34;5037957;28;20066;-38
2023/06/18 04:57:13;;;;;;;9.07;6.10;;;17.50;89.20;;;17.48;61.67;97003.88;5034961;28;20028;-39
2023/06/18 04:59:39;;;;;;;7.72;5.85;;;17.50;88.90;;;17.45;61.62;96999.63;5048456;28;20033;-38
2023/06/18 05:02:06;;;;;;;7.13;5.68;;;17.50;88.50;;;17.49;62.19;97002.91;5032025;28;20044;-37
2023/06/18 05:04:32;;;;;;;6.60;5.63;;;17.50;88.70;;;17.47;62.74;96991.50;5041757;28;20421;-38
2023/06/18 05:06:58;;;;;;;7.05;5.47;;;17.50;89.10;;;17.51;64.00;97001.00;5033577;28;20506;-38
2023/06/18 05:09:23;;;;;;;11.18;6.55;;;17.50;89.80;;;17.48;64.66;96998.53;5038748;28;20043;-40
2023/06/18 05:11:49;;;;;;;8.68;6.40;;;17.50;90.00;;;17.44;64.79;97003.22;5037046;28;20372;-38
2023/06/18 05:14:15;;;;;;;9.48;5.93;;;17.50;90.00;;;17.43;65.94;96993.56;5028705;28;20090;-38
2023/06/18 05:16:41;;;;;;;6.82;5.70;;;17.50;90.30;;;17.41;66.11;97005.25;5030736;28;20028;-38
2023/06/18 05:19:06;;;;;;;8.35;5.53;;;17.50;90.40;;;17.41;65.84;96991.94;5037034;28;20040;-38
2023/06/18 05:21:32;;;;;;;7.32;5.78;;;17.40;90.40;;;17.44;65.87;97000.56;5034584;28;20458;-37
2023/06/18 05:23:58;;;;;;;9.63;6.00;;;17.50;90.30;;;17.52;66.19;96992.88;5020964;28;20470;-37
2023/06/18 05:26:24;;;;;;;8.05;5.85;;;17.50;90.50;;;17.67;65.48;96998.09;5034412;28;21110;-37
2023/06/18 05:28:50;;;;;;;9.38;5.75;;;17.60;90.40;;;17.85;65.08;97002.09;5031149;28;20040;-37
2023/06/18 05:31:15;;;;;;;8.18;5.75;;;17.70;90.40;;;18.12;63.88;97006.38;5031629;28;20041;-38
2023/06/18 05:33:41;;;;;;;8.10;5.95;;;17.90;90.20;;;18.36;62.43;97010.88;5039030;28;20210;-37
2023/06/18 05:36:07;;;;;;;8.52;6.03;;;18.00;90.00;;;18.39;61.33;97006.16;5038033;28;21101;-37
2023/06/18 05:38:33;;;;;;;7.97;5.93;;;18.20;89.40;;;18.44;61.43;97012.00;5037555;28;20207;-37
2023/06/18 05:40:58;;;;;;;9.70;6.32;;;18.20;89.20;;;18.41;62.33;97009.59;5033490;28;20037;-37
2023/06/18 05:43:24;;;;;;;7.65;5.78;;;18.30;89.60;;;18.38;63.12;97009.81;5044525;28;20024;-37
2023/06/18 05:45:50;;;;;;;9.07;6.45;;;18.30;89.60;;;18.36;62.72;97009.06;5038021;28;20033;-38
2023/06/18 05:48:16;;;;;;;9.30;6.18;;;18.40;89.50;;;18.37;62.53;97015.25;5034712;28;20829;-38
2023/06/18 05:50:42;;;;;;;9.15;6.15;;;18.40;89.20;;;18.42;62.78;97019.28;5038773;28;21107;-38
2023/06/18 05:53:08;;;;;;;8.07;6.13;;;18.40;89.20;;;18.41;62.25;97011.38;5026762;28;20033;-37
2023/06/18 05:55:34;;;;;;;8.32;6.55;;;18.50;89.10;;;18.57;61.66;97019.94;5038932;28;20086;-38
2023/06/18 05:57:59;;;;;;;7.50;5.53;;;18.60;88.50;;;18.72;61.50;97023.28;5043020;28;20346;-37
2023/06/18 06:00:26;;;;;;;8.45;5.80;;;18.70;88.60;;;18.87;61.31;97019.47;5045343;28;20549;-37
2023/06/18 06:02:52;;;;;;;7.78;5.80;;;18.90;88.50;;;19.03;60.65;97021.81;5044424;28;20700;-38
2023/06/18 06:05:18;;;;;;;8.95;6.53;;;19.00;88.00;;;19.20;59.14;97022.31;5028499;28;20036;-37
2023/06/18 06:07:44;;;;;;;8.05;6.10;;;19.20;87.10;;;19.42;58.46;97029.53;5033847;28;20040;-37
2023/06/18 06:10:13;;;;;;;12.00;6.35;;;19.40;86.80;;;19.66;57.67;97021.38;5035836;28;20513;-38
2023/06/18 06:12:39;;;;;;;8.00;6.18;;;19.60;86.40;;;19.87;57.93;97018.00;5035738;28;20202;-39
2023/06/18 06:15:05;;;;;;;6.90;5.72;;;19.80;85.90;;;20.12;56.85;97016.84;5036502;28;20024;-37
2023/06/18 06:17:31;;;;;;;9.00;6.63;;;20.10;85.80;;;20.31;55.29;97027.72;5044025;28;20034;-39
2023/06/18 06:19:57;;;;;;;9.05;6.07;;;20.20;84.60;;;20.50;54.23;97024.38;5036868;28;23782;-39
2023/06/18 06:22:22;;;;;;;7.50;5.93;;;20.40;83.80;;;20.67;53.40;97022.16;5039717;28;20872;-38
2023/06/18 06:24:48;;;;;;;6.28;5.28;;;20.50;83.00;;;20.86;52.99;97018.78;5045562;28;20502;-39
2023/06/18 06:27:14;;;;;;;6.10;5.22;;;20.70;82.60;;;21.01;52.07;97020.13;5045023;28;20419;-38
2023/06/18 06:29:39;;;;;;;9.75;6.32;;;20.90;81.80;;;21.19;50.42;97022.22;5041361;28;20086;-38
2023/06/18 06:32:05;;;;;;;7.72;5.68;;;21.00;81.40;;;21.39;51.33;97023.19;5039580;28;20040;-37
2023/06/18 06:34:32;;;;;;;7.28;4.93;;;21.30;81.00;;;21.55;50.71;97023.56;5041142;28;20467;-38
2023/06/18 06:36:58;;;;;;;7.47;5.45;;;21.40;80.40;;;21.66;49.41;97019.94;5047241;28;20032;-38
2023/06/18 06:39:24;;;;;;;6.30;5.20;;;21.50;79.50;;;21.84;48.83;97017.47;5039972;28;20028;-39
2023/06/18 06:41:49;;;;;;;9.88;6.55;;;21.70;78.60;;;21.98;47.97;97018.94;5043004;28;20033;-38
2023/06/18 06:44:15;;;;;;;6.53;5.55;;;21.90;77.70;;;22.15;47.05;97025.50;5040260;28;20032;-37
2023/06/18 06:46:41;;;;;;;6.68;5.63;;;22.00;77.10;;;22.32;46.89;97022.13;5043653;28;20158;-39
2023/06/18 06:49:07;;;;;;;8.52;6.28;;;22.10;76.50;;;22.48;46.25;97029.66;5045323;28;20036;-39
2023/06/18 06:51:35;;;;;;;6.78;6.07;;;22.30;75.90;;;22.63;45.49;97025.56;5049103;28;20126;-39
2023/06/18 06:54:01;;;;;;;8.98;6.63;;;22.40;75.90;;;22.78;45.10;97039.41;5039823;28;20812;-38
2023/06/18 06:56:27;;;;;;;7.28;6.07;;;22.60;74.70;;;22.95;45.01;97031.63;5041494;28;20465;-39
2023/06/18 06:58:52;;;;;;;6.93;6.15;;;22.70;74.90;;;23.10;45.14;97034.78;5034682;28;20035;-39
2023/06/18 07:01:21;;;;;;;7.65;5.85;;;22.80;73.80;;;23.16;43.06;97034.19;5030838;28;20037;-39
2023/06/18 07:03:46;;;;;;;6.93;6.03;;;23.00;71.60;;;23.31;42.75;97035.44;5039424;28;20159;-39
2023/06/18 07:06:12;;;;;;;6.60;5.82;;;23.10;72.30;;;23.48;42.59;97032.97;5033441;28;20055;-38
2023/06/18 07:08:38;;;;;;;8.38;6.18;;;23.30;70.80;;;23.56;42.56;97031.25;5035668;28;20607;-39
2023/06/18 07:11:04;;;;;;;6.68;5.68;;;23.40;70.90;;;23.66;42.22;97036.59;5036692;28;20491;-39
2023/06/18 07:13:30;;;;;;;7.18;5.82;;;23.50;70.60;;;23.79;41.56;97029.00;5040185;28;20032;-39
2023/06/18 07:15:56;;;;;;;8.93;6.70;;;23.60;70.00;;;23.88;41.08;97032.69;5039457;28;20436;-39
2023/06/18 07:18:21;;;;;;;6.63;5.55;;;23.70;68.60;;;24.00;41.36;97036.06;5038164;28;20032;-39
2023/06/18 07:20:47;;;;;;;6.72;5.80;;;23.80;68.90;;;24.15;41.40;97036.38;5039498;28;20039;-38
2023/06/18 07:23:13;;;;;;;8.32;5.47;;;23.90;68.70;;;24.26;40.89;97029.94;5039369;28;20085;-38
2023/06/18 07:25:38;;;;;;;7.05;6.13;;;24.10;68.30;;;24.36;40.41;97045.03;5038061;28;20203;-38
2023/06/18 07:28:04;;;;;;;7.88;6.05;;;24.20;68.30;;;24.46;40.18;97039.59;5035596;28;20105;-39
2023/06/18 07:30:30;;;;;;;7.32;5.63;;;24.30;66.60;;;24.56;40.96;97039.56;5043059;28;20028;-39
2023/06/18 07:32:55;;;;;;;8.63;6.18;;;24.40;68.50;;;24.65;39.83;97043.19;5042431;28;20087;-38
2023/06/18 07:35:21;;;;;;;9.77;6.60;;;24.50;66.70;;;24.73;40.62;97032.50;5038351;28;20024;-38
2023/06/18 07:37:47;;;;;;;13.40;7.35;;;24.50;66.70;;;24.73;39.90;97040.59;5043502;28;20054;-38
2023/06/18 07:40:13;;;;;;;6.97;6.13;;;24.60;65.90;;;24.85;40.63;97030.38;5036552;28;20101;-39
2023/06/18 07:42:39;;;;;;;6.78;5.63;;;24.70;67.10;;;25.01;38.29;97035.06;5036229;28;20079;-39
2023/06/18 07:45:06;;;;;;;9.13;6.85;;;24.80;64.70;;;24.96;37.37;97033.69;5034081;28;21581;-39
2023/06/18 07:47:31;;;;;;;7.05;5.75;;;24.80;62.40;;;25.03;38.22;97030.38;5040153;28;20753;-38
2023/06/18 07:49:59;;;;;;;9.88;5.75;;;24.80;64.00;;;25.06;38.10;97030.06;5042952;28;20117;-38
2023/06/18 07:52:26;;;;;;;7.60;6.05;;;24.90;63.70;;;25.14;39.16;97032.81;5035399;28;20059;-38
2023/06/18 07:54:52;;;;;;;7.10;6.25;;;25.00;64.70;;;25.23;37.98;97041.81;5036327;28;20033;-39
2023/06/18 07:57:17;;;;;;;8.07;5.60;;;25.00;63.40;;;25.31;37.37;97031.97;5032234;28;20055;-40
2023/06/18 07:59:43;;;;;;;7.00;5.72;;;25.10;62.40;;;25.46;37.00;97034.06;5033539;28;20044;-39
2023/06/18 08:02:09;;;;;;;9.40;6.30;;;25.20;62.00;;;25.50;37.01;97035.44;5031571;28;21015;-39
2023/06/18 08:04:35;;;;;;;10.13;6.85;;;25.30;61.10;;;25.52;37.07;97033.47;5040867;28;20048;-39
2023/06/18 08:07:01;;;;;;;7.10;6.20;;;25.40;61.70;;;25.65;36.67;97033.03;5038106;28;20028;-40
2023/06/18 08:09:27;;;;;;;6.22;5.43;;;25.50;62.20;;;25.75;35.83;97031.03;5039008;28;21379;-39
2023/06/18 08:11:52;;;;;;;7.65;6.05;;;25.60;60.90;;;25.86;36.70;97022.66;5030531;28;20539;-38
2023/06/18 08:14:18;;;;;;;9.60;5.97;;;25.70;61.20;;;25.94;35.46;97027.28;5034624;28;20027;-41
2023/06/18 08:16:44;;;;;;;11.55;6.25;;;25.70;60.20;;;26.01;35.69;97022.91;5040315;28;20040;-39
2023/06/18 08:19:10;;;;;;;5.80;5.15;;;25.90;60.00;;;26.07;35.65;97019.53;5037257;28;20398;-39
2023/06/18 08:21:35;;;;;;;8.80;5.70;;;25.90;59.60;;;26.16;35.72;97023.13;5034981;28;20471;-39
2023/06/18 08:24:02;;;;;;;9.00;6.63;;;26.00;59.50;;;26.18;35.07;97029.22;5033173;28;20509;-40
2023/06/18 08:26:28;;;;;;;6.38;5.65;;;26.00;58.80;;;26.23;35.79;97032.28;5037933;28;20025;-39
2023/06/18 08:28:54;;;;;;;8.13;6.55;;;26.00;59.80;;;26.15;34.29;97034.97;5040200;28;20086;-39
2023/06/18 08:31:23;;;;;;;7.15;6.05;;;26.00;58.20;;;26.23;34.31;97021.47;5039832;28;20411;-38
2023/06/18 08:33:50;;;;;;;6.72;5.88;;;26.00;58.00;;;26.23;34.41;97020.63;5044042;28;20029;-39
2023/06/18 08:36:18;;;;;;;6.80;5.60;;;26.00;57.90;;;26.32;35.07;97027.75;5035798;28;20044;-39
2023/06/18 08:38:44;;;;;;;8.05;6.30;;;26.10;59.40;;;26.38;35.38;97018.13;5040569;28;20225;-39
2023/06/18 08:41:11;;;;;;;8.07;6.55;;;26.10;59.00;;;26.44;35.91;97021.03;5039018;28;20016;-39
2023/06/18 08:43:38;;;;;;;10.77;6.57;;;26.20;59.90;;;26.47;36.76;97019.84;5037727;28;20028;-39
2023/06/18 08:46:10;;;;;;;8.90;6.38;;;26.30;61.20;;;26.41;36.85;97029.44;5034272;28;20031;-39
2023/06/18 08:48:48;;;;;;;7.05;6.35;;;26.30;59.80;;;26.46;36.03;97019.00;5038261;28;20047;-39
2023/06/18 08:51:16;;;;;;;6.97;5.90;;;26.30;59.90;;;26.55;35.92;97030.66;5032304;28;20040;-39
2023/06/18 08:53:49;;;;;;;6.80;6.00;;;26.30;59.70;;;26.64;34.97;97023.44;5032645;28;20573;-40
2023/06/18 08:56:18;;;;;;;7.80;5.65;;;26.40;59.40;;;26.70;33.94;97017.38;5020316;28;20082;-39
2023/06/18 08:58:51;;;;;;;9.07;6.00;;;26.50;57.50;;;26.65;33.64;97017.03;5047251;28;20086;-39
2023/06/18 09:01:18;;;;;;;6.82;5.70;;;26.50;57.10;;;26.75;33.40;97019.59;5041272;28;20455;-40
2023/06/18 09:03:45;;;;;;;7.20;5.95;;;26.60;56.70;;;26.85;32.39;97014.84;5042127;28;20490;-40
2023/06/18 09:06:14;;;;;;;6.85;5.45;;;26.70;55.60;;;26.95;32.34;97011.97;5033750;28;20107;-39
2023/06/18 09:08:40;;;;;;;7.60;6.10;;;26.70;55.20;;;26.93;32.21;97017.53;5042804;28;20378;-38
2023/06/18 09:11:06;;;;;;;6.55;5.93;;;26.80;55.00;;;27.00;31.43;97017.72;5039981;28;20070;-39
2023/06/18 09:13:33;;;;;;;7.32;5.50;;;26.80;54.50;;;27.05;30.87;97015.38;5049915;28;20055;-39
2023/06/18 09:16:00;;;;;;;6.43;5.47;;;26.90;53.80;;;27.07;30.73;97016.03;5040987;28;20095;-38
2023/06/18 09:18:26;;;;;;;7.78;6.18;;;26.90;53.00;;;27.15;29.25;97017.88;5045759;28;20031;-39
2023/06/18 09:20:54;;;;;;;6.95;5.55;;;27.00;50.90;;;27.18;29.72;97010.25;5045193;28;20024;-38
2023/06/18 09:23:20;;;;;;;6.50;5.70;;;27.00;51.50;;;27.28;28.78;97020.97;5047989;28;20072;-39
2023/06/18 09:25:52;;;;;;;7.50;5.38;;;27.10;50.50;;;27.35;29.25;97007.56;5043634;28;20115;-40
2023/06/18 09:28:19;;;;;;;6.57;5.23;;;27.20;50.70;;;27.50;29.45;97005.00;5035962;28;20640;-39
2023/06/18 09:30:59;;;;;;;7.75;5.18;;;27.30;51.80;;;27.62;28.68;97006.34;5033691;28;20297;-39
2023/06/18 09:33:31;;;;;;;6.72;5.90;;;27.40;50.40;;;27.60;29.04;97001.09;5040586;28;21188;-39
2023/06/18 09:36:07;;;;;;;;;;;27.50;50.40;;;27.78;29.01;97002.72;5043391;28;20229;-39
2023/06/18 09:38:39;;;;;;;8.77;5.30;;;27.60;50.50;;;27.84;28.26;96998.47;5052003;28;19920;-40
2023/06/18 09:41:17;;;;;;;7.40;5.50;;;27.70;50.10;;;27.88;28.72;96997.09;5047474;28;20405;-39
2023/06/18 09:43:48;;;;;;;5.80;5.15;;;27.70;49.60;;;27.86;26.81;96999.16;5043925;28;20387;-39
2023/06/18 09:46:16;;;;;;;5.95;5.28;;;27.60;47.70;;;27.89;27.32;96996.94;5038162;28;20036;-39
2023/06/18 09:48:45;;;;;;;7.18;5.28;;;27.60;48.40;;;27.92;28.50;97002.00;5047197;28;20588;-39
2023/06/18 09:51:13;;;;;;;8.95;5.50;;;27.70;49.80;;;27.92;26.87;96991.16;5039975;28;20095;-39
2023/06/18 09:53:39;;;;;;;9.15;5.47;;;27.70;47.50;;;27.87;27.78;96990.84;5035998;28;20150;-39
2023/06/18 09:56:16;;;;;;;6.05;5.45;;;27.80;48.90;;;27.79;26.78;96997.13;5041357;28;20473;-39
2023/06/18 09:58:46;;;;;;;6.70;5.28;;;27.70;47.30;;;27.87;27.90;96990.84;5053616;28;20041;-40
2023/06/18 10:01:12;;;;;;;5.82;4.97;;;27.70;48.50;;;27.92;27.24;96991.16;5042983;28;20042;-39
2023/06/18 10:03:39;;;;;;;6.00;5.20;;;27.70;48.20;;;27.96;27.01;96987.09;5042317;28;20025;-39
2023/06/18 10:06:22;;;;;;;7.97;5.50;;;27.80;48.00;;;27.88;26.38;96988.97;5044024;28;20543;-38
2023/06/18 10:08:51;;;;;;;8.90;5.93;;;27.80;46.50;;;27.77;27.40;96987.50;5045458;28;20039;-38
2023/06/18 10:11:18;;;;;;;6.78;5.55;;;27.70;48.00;;;27.75;27.27;96981.41;5035080;28;20036;-39
2023/06/18 10:13:49;;;;;;;6.22;4.97;;;27.70;47.90;;;27.85;27.44;96982.03;5042107;28;20055;-40
2023/06/18 10:16:19;;;;;;;6.13;5.53;;;27.70;47.60;;;27.81;26.78;96977.97;5042122;28;20330;-39
2023/06/18 10:19:02;;;;;;;6.30;5.32;;;27.70;47.60;;;27.81;27.86;96977.97;5048441;28;20580;-39